Time;durP1;ratioP1;P1;durP2;ratioP2;P2;SDS_P1;SDS_P2;PMS_P1;PMS_P2;Temp;Humidity;BMP_temperature;BMP_pressure;BME280_temperature;BME280_humidity;BME280_pressure;Samples;Min_cycle;Max_cycle;Signal;HPM_P1;HPM_P2
2022/04/18 00:00:07;;;;;;;42.10;22.00;;;;;;;7.10;37.35;101517.00;688306;28;1579;-82
2022/04/18 00:00:30;;;;;;;43.40;21.85;;;;;;;7.09;37.07;101516.91;687697;28;1372;-82
2022/04/18 00:00:51;;;;;;;42.20;22.70;;;;;;;7.05;37.51;101515.88;686833;28;1599;-81
2022/04/18 00:01:11;;;;;;;42.70;22.80;;;;;;;7.07;37.39;101523.75;684511;28;1474;-81
2022/04/18 00:01:32;;;;;;;42.83;22.65;;;;;;;7.07;37.64;101518.56;684436;28;1382;-82
2022/04/18 00:01:53;;;;;;;40.75;21.75;;;;;;;7.09;37.14;101522.13;685106;28;1699;-82
2022/04/18 00:02:13;;;;;;;41.87;21.70;;;;;;;7.04;37.32;101519.28;690433;28;1270;-82
2022/04/18 00:02:35;;;;;;;39.80;21.52;;;;;;;7.01;37.20;101513.94;689060;28;1906;-82
2022/04/18 00:02:55;;;;;;;44.38;21.88;;;;;;;6.97;37.21;101505.06;684478;28;1704;-82
2022/04/18 00:03:16;;;;;;;40.97;21.00;;;;;;;7.02;37.55;101515.72;690558;28;928;-82
2022/04/18 00:03:36;;;;;;;42.37;21.57;;;;;;;7.02;37.53;101520.00;689513;28;1167;-82
2022/04/18 00:03:56;;;;;;;37.87;21.20;;;;;;;7.04;37.32;101514.06;687873;28;1561;-82
2022/04/18 00:04:18;;;;;;;38.38;21.33;;;;;;;7.11;37.25;101529.19;685961;28;1162;-82
2022/04/18 00:04:38;;;;;;;35.85;20.15;;;;;;;7.07;37.50;101518.56;689484;28;1342;-81
2022/04/18 00:04:59;;;;;;;38.77;20.50;;;;;;;7.04;37.56;101519.28;682496;28;1521;-82
2022/04/18 00:05:20;;;;;;;37.40;19.80;;;;;;;7.10;37.64;101523.91;683567;28;1811;-82
2022/04/18 00:05:40;;;;;;;38.58;20.00;;;;;;;7.04;37.25;101513.16;692595;28;1271;-81
2022/04/18 00:06:01;;;;;;;36.00;19.17;;;;;;;7.01;37.49;101506.13;688741;28;1145;-81
2022/04/18 00:06:22;;;;;;;38.00;19.58;;;;;;;7.03;37.38;101507.09;689054;28;1607;-82
2022/04/18 00:06:42;;;;;;;34.67;18.60;;;;;;;7.09;37.37;101525.63;690562;28;1393;-82
2022/04/18 00:07:04;;;;;;;35.70;18.58;;;;;;;7.02;37.54;101514.78;690423;28;1296;-82
2022/04/18 00:07:24;;;;;;;34.45;18.35;;;;;;;6.98;37.35;101506.84;687729;28;1230;-82
2022/04/18 00:07:45;;;;;;;34.63;18.73;;;;;;;7.04;37.56;101519.28;685217;28;1012;-82
2022/04/18 00:08:06;;;;;;;34.28;18.58;;;;;;;7.04;37.57;101519.28;687786;28;1237;-82
2022/04/18 00:08:26;;;;;;;33.75;18.35;;;;;;;7.00;37.51;101512.09;688261;28;1790;-82
2022/04/18 00:08:47;;;;;;;34.30;17.80;;;;;;;7.03;37.66;101514.00;690675;28;823;-81
2022/04/18 00:09:08;;;;;;;31.83;17.63;;;;;;;7.06;37.76;101528.03;691460;28;1202;-81
2022/04/18 00:09:33;;;;;;;31.10;17.10;;;;;;;6.94;37.78;101502.28;688115;28;1198;-82
2022/04/18 00:09:54;;;;;;;28.42;16.30;;;;;;;6.97;37.73;101509.34;693008;28;1368;-82
2022/04/18 00:10:14;;;;;;;27.50;15.85;;;;;;;6.96;37.82;101512.78;687723;28;1034;-82
2022/04/18 00:10:35;;;;;;;25.38;15.73;;;;;;;6.97;37.81;101514.56;692284;28;1108;-82
2022/04/18 00:10:55;;;;;;;27.57;15.83;;;;;;;6.94;37.42;101511.81;693289;28;1042;-82
2022/04/18 00:11:16;;;;;;;29.92;16.20;;;;;;;7.01;37.42;101511.34;693122;28;1114;-82
2022/04/18 00:11:36;;;;;;;27.93;15.70;;;;;;;6.96;38.21;101511.09;689357;28;1235;-82
2022/04/18 00:11:57;;;;;;;25.52;15.13;;;;;;;6.96;38.04;101512.78;690602;28;760;-82
2022/04/18 00:12:18;;;;;;;23.55;14.20;;;;;;;7.02;37.73;101517.41;684116;28;1795;-82
2022/04/18 00:12:38;;;;;;;24.15;14.02;;;;;;;6.99;37.55;101507.72;688169;28;1279;-82
2022/04/18 00:12:59;;;;;;;26.27;14.65;;;;;;;7.01;37.89;101516.53;685178;28;1346;-82
2022/04/18 00:13:20;;;;;;;26.20;15.00;;;;;;;6.98;37.83;101508.53;685317;28;1193;-82
2022/04/18 00:13:40;;;;;;;29.92;15.55;;;;;;;7.01;37.65;101515.63;689919;28;1309;-82
2022/04/18 00:14:02;;;;;;;28.05;14.90;;;;;;;7.02;37.41;101515.72;692060;28;1185;-82
2022/04/18 00:14:23;;;;;;;27.30;14.77;;;;;;;6.98;37.55;101517.25;690535;28;1682;-82
2022/04/18 00:14:45;;;;;;;24.95;14.63;;;;;;;6.92;38.03;101497.81;690531;28;1266;-82
2022/04/18 00:15:06;;;;;;;26.65;14.73;;;;;;;6.91;37.71;101502.13;685168;28;1361;-82
2022/04/18 00:15:27;;;;;;;28.15;15.05;;;;;;;6.92;37.92;101500.41;686301;28;1269;-82
2022/04/18 00:15:47;;;;;;;28.25;15.10;;;;;;;6.92;38.04;101503.91;692550;28;1495;-82
2022/04/18 00:16:08;;;;;;;28.33;14.93;;;;;;;6.88;37.80;101496.75;690468;28;1278;-82
2022/04/18 00:16:29;;;;;;;27.60;14.47;;;;;;;6.98;37.54;101516.34;687747;28;1274;-82
2022/04/18 00:16:49;;;;;;;27.60;14.40;;;;;;;6.88;37.70;101498.47;687885;28;1757;-82
2022/04/18 00:17:10;;;;;;;25.17;14.10;;;;;;;6.91;37.74;101507.34;685084;28;1184;-81
2022/04/18 00:17:31;;;;;;;23.67;13.90;;;;;;;6.85;37.97;101500.09;687111;28;1191;-82
2022/04/18 00:17:51;;;;;;;23.17;13.60;;;;;;;6.95;37.77;101518.78;687964;28;1141;-82
2022/04/18 00:18:12;;;;;;;24.50;13.98;;;;;;;6.90;38.15;101507.22;685055;28;1206;-82
2022/04/18 00:18:33;;;;;;;24.98;14.30;;;;;;;6.90;38.22;101507.22;687580;28;1421;-82
2022/04/18 00:18:54;;;;;;;23.88;13.77;;;;;;;6.96;37.75;101523.16;687961;28;771;-82
2022/04/18 00:19:14;;;;;;;21.83;13.43;;;;;;;6.83;38.03;101498.22;687743;28;1545;-82
2022/04/18 00:19:36;;;;;;;23.67;12.60;;;;;;;6.82;38.01;101494.72;687379;28;1144;-82
2022/04/18 00:19:57;;;;;;;23.13;12.43;;;;;;;6.87;38.40;101509.66;690352;28;1313;-82
2022/04/18 00:20:17;;;;;;;24.40;12.60;;;;;;;6.85;37.94;101509.59;693313;28;1236;-82
2022/04/18 00:20:38;;;;;;;22.55;12.80;;;;;;;6.85;37.83;101506.97;691777;28;1687;-81
2022/04/18 00:20:58;;;;;;;20.23;12.33;;;;;;;6.82;38.16;101506.81;687976;28;1567;-82
2022/04/18 00:21:20;;;;;;;18.15;11.50;;;;;;;6.81;38.14;101505.91;693418;28;1512;-82
2022/04/18 00:21:40;;;;;;;19.23;11.70;;;;;;;6.76;38.40;101489.19;693181;28;1456;-82
2022/04/18 00:22:01;;;;;;;21.90;12.43;;;;;;;6.73;38.41;101494.22;690497;28;1097;-82
2022/04/18 00:22:23;;;;;;;21.93;12.97;;;;;;;6.76;38.26;101499.56;687922;28;1754;-82
2022/04/18 00:22:44;;;;;;;19.88;12.90;;;;;;;6.81;38.46;101508.50;690299;28;1907;-82
2022/04/18 00:23:05;;;;;;;21.35;12.70;;;;;;;6.81;38.37;101512.81;687810;28;1214;-82
2022/04/18 00:23:25;;;;;;;23.90;13.40;;;;;;;6.72;38.39;101489.84;687945;28;1147;-82
2022/04/18 00:23:46;;;;;;;24.13;13.20;;;;;;;6.74;38.19;101492.53;685070;28;1225;-82
2022/04/18 00:24:10;;;;;;;25.60;13.40;;;;;;;6.76;38.39;101494.38;687758;28;1624;-82
2022/04/18 00:24:31;;;;;;;25.40;13.18;;;;;;;6.75;38.09;101499.50;688523;28;1707;-82
2022/04/18 00:24:52;;;;;;;25.98;13.80;;;;;;;6.76;38.36;101509.06;687759;28;1305;-82
2022/04/18 00:25:12;;;;;;;25.08;13.48;;;;;;;6.71;38.50;101495.84;687834;28;910;-82
2022/04/18 00:25:33;;;;;;;25.88;13.57;;;;;;;6.73;38.36;101496.81;684082;28;1208;-82
2022/04/18 00:25:53;;;;;;;24.67;13.60;;;;;;;6.67;38.39;101492.16;685064;28;780;-82
2022/04/18 00:26:14;;;;;;;25.33;14.20;;;;;;;6.72;38.29;101502.81;686594;28;1500;-82
2022/04/18 00:26:37;;;;;;;27.20;14.60;;;;;;;6.70;38.30;101494.03;690523;28;1166;-82
2022/04/18 00:26:58;;;;;;;28.98;14.88;;;;;;;6.74;38.55;101502.91;689553;28;1271;-82
2022/04/18 00:27:18;;;;;;;27.48;15.30;;;;;;;6.66;38.75;101490.38;687772;28;1730;-82
2022/04/18 00:27:39;;;;;;;28.20;15.52;;;;;;;6.69;38.72;101498.31;684936;28;1168;-82
2022/04/18 00:27:59;;;;;;;29.35;16.17;;;;;;;6.68;38.88;101498.22;687787;28;1262;-82
2022/04/18 00:28:20;;;;;;;34.00;16.27;;;;;;;6.66;38.57;101489.47;690589;28;1157;-82
2022/04/18 00:28:40;;;;;;;33.50;16.77;;;;;;;6.65;38.39;101490.28;689849;28;1305;-81
2022/04/18 00:29:01;;;;;;;34.20;16.77;;;;;;;6.71;38.63;101499.31;687864;28;1095;-82
2022/04/18 00:29:22;;;;;;;30.98;16.63;;;;;;;6.68;38.53;101493.94;687199;28;1635;-82
2022/04/18 00:29:42;;;;;;;31.95;16.25;;;;;;;6.70;38.99;101496.63;684503;28;906;-82
2022/04/18 00:30:03;;;;;;;33.10;16.57;;;;;;;6.64;38.68;101491.09;685009;28;1087;-82
2022/04/18 00:30:27;;;;;;;33.47;16.73;;;;;;;6.65;38.56;101498.06;690945;28;1266;-82
2022/04/18 00:30:47;;;;;;;33.17;17.00;;;;;;;6.62;38.95;101482.34;693298;28;1128;-82
2022/04/18 00:31:08;;;;;;;37.20;17.65;;;;;;;6.68;38.85;101500.81;690572;28;1680;-82
2022/04/18 00:31:28;;;;;;;39.17;18.40;;;;;;;6.64;38.64;101491.09;694095;28;1294;-82
2022/04/18 00:31:49;;;;;;;35.13;18.00;;;;;;;6.58;39.07;101482.16;691883;28;1093;-82
2022/04/18 00:32:09;;;;;;;33.00;18.23;;;;;;;6.57;38.79;101482.09;687700;28;1235;-82
2022/04/18 00:32:30;;;;;;;31.25;17.60;;;;;;;6.60;38.92;101495.22;686956;28;1191;-81
2022/04/18 00:32:51;;;;;;;33.47;17.90;;;;;;;6.56;38.77;101488.06;690424;28;1273;-82
2022/04/18 00:33:11;;;;;;;31.25;17.88;;;;;;;6.55;38.89;101487.19;687840;28;957;-82
2022/04/18 00:33:33;;;;;;;31.87;18.47;;;;;;;6.52;38.80;101487.00;688389;28;1158;-82
2022/04/18 00:33:54;;;;;;;32.50;18.80;;;;;;;6.55;38.82;101496.66;687791;28;1472;-81
2022/04/18 00:34:14;;;;;;;35.63;18.88;;;;;;;6.53;38.94;101488.81;686715;28;1766;-82
2022/04/18 00:34:35;;;;;;;35.50;18.17;;;;;;;6.52;39.16;101492.19;687560;28;1212;-81
2022/04/18 00:34:56;;;;;;;38.00;18.10;;;;;;;6.56;38.81;101488.97;685949;28;1441;-82
2022/04/18 00:35:16;;;;;;;39.72;18.55;;;;;;;6.54;38.85;101495.78;687015;28;1663;-82
2022/04/18 00:35:36;;;;;;;47.53;19.07;;;;;;;6.60;38.71;101505.59;685901;28;1163;-81
2022/04/18 00:35:57;;;;;;;48.08;19.48;;;;;;;6.57;39.22;101495.94;687944;28;795;-81
2022/04/18 00:36:18;;;;;;;48.85;20.13;;;;;;;6.55;38.99;101492.38;686295;28;1667;-82
2022/04/18 00:36:39;;;;;;;41.33;20.60;;;;;;;6.58;39.17;101500.31;693649;28;1120;-82
2022/04/18 00:36:59;;;;;;;39.03;20.70;;;;;;;6.58;38.93;101497.72;687808;28;1291;-81
2022/04/18 00:37:20;;;;;;;36.75;20.27;;;;;;;6.50;38.98;101491.22;687589;28;1777;-82
2022/04/18 00:37:40;;;;;;;37.00;19.57;;;;;;;6.51;39.33;101493.00;690215;28;1211;-82
2022/04/18 00:38:01;;;;;;;41.78;19.88;;;;;;;6.48;39.19;101482.44;682437;28;1383;-82
2022/04/18 00:38:22;;;;;;;41.10;19.95;;;;;;;6.57;39.26;101493.34;687818;28;1296;-82
2022/04/18 00:38:44;;;;;;;43.00;20.80;;;;;;;6.51;39.17;101495.56;687619;28;1169;-82
2022/04/18 00:39:05;;;;;;;39.20;21.27;;;;;;;6.48;39.20;101485.06;685041;28;1133;-82
2022/04/18 00:39:26;;;;;;;40.77;21.50;;;;;;;6.52;39.10;101491.31;687612;28;1169;-81
2022/04/18 00:39:47;;;;;;;42.03;21.40;;;;;;;6.48;39.30;101486.72;687337;28;1195;-81
2022/04/18 00:40:11;;;;;;;46.13;20.70;;;;;;;6.45;39.01;101477.09;682415;29;1273;-82
2022/04/18 00:40:31;;;;;;;42.28;19.98;;;;;;;6.47;39.28;101485.84;687571;28;1127;-81
2022/04/18 00:40:52;;;;;;;44.43;20.57;;;;;;;6.48;39.13;101487.63;690579;28;764;-82
2022/04/18 00:41:12;;;;;;;42.38;20.88;;;;;;;6.50;39.32;101486.00;690402;28;1349;-81
2022/04/18 00:41:33;;;;;;;42.63;21.55;;;;;;;6.50;39.50;101490.34;685005;28;1168;-82
2022/04/18 00:41:53;;;;;;;39.50;21.47;;;;;;;6.48;39.25;101492.81;685278;28;835;-82
2022/04/18 00:42:14;;;;;;;40.83;20.85;;;;;;;6.43;39.21;101484.78;690374;28;1072;-81
2022/04/18 00:42:34;;;;;;;43.10;20.63;;;;;;;6.39;39.34;101475.03;689106;28;1989;-82
2022/04/18 00:43:04;;;;;;;43.88;19.92;;;;;;;6.44;39.40;101486.56;690486;28;1086;-81
2022/04/18 00:43:46;;;;;;;44.30;20.27;;;;;;;6.42;39.30;101482.09;693486;28;1431;-82
2022/04/18 00:44:07;;;;;;;46.03;20.38;;;;;;;6.46;39.29;101491.84;690435;28;854;-82
2022/04/18 00:44:27;;;;;;;45.40;20.90;;;;;;;6.37;39.36;101476.66;691719;28;1238;-81
2022/04/18 00:44:48;;;;;;;41.77;20.97;;;;;;;6.38;39.58;101483.63;687788;28;1063;-82
2022/04/18 00:45:08;;;;;;;39.97;20.60;;;;;;;6.38;39.54;101480.16;682409;29;1155;-82
2022/04/18 00:45:29;;;;;;;42.30;20.67;;;;;;;6.31;39.46;101465.94;682279;28;1381;-82
2022/04/18 00:45:50;;;;;;;43.27;20.77;;;;;;;6.40;39.42;101492.38;690503;28;1117;-81
2022/04/18 00:46:19;;;;;;;42.20;20.83;;;;;;;6.37;39.44;101484.44;687738;28;1374;-81
2022/04/18 00:46:39;;;;;;;39.20;21.17;;;;;;;6.39;39.58;101484.53;692291;28;1318;-81
2022/04/18 00:47:00;;;;;;;42.58;21.25;;;;;;;6.41;39.62;101493.28;693199;28;872;-82
2022/04/18 00:47:21;;;;;;;42.20;20.30;;;;;;;6.36;39.71;101484.34;690309;28;1240;-82
2022/04/18 00:47:41;;;;;;;43.00;20.15;;;;;;;6.30;39.64;101479.72;693640;28;1495;-82
2022/04/18 00:48:02;;;;;;;46.25;20.83;;;;;;;6.30;39.92;101485.81;690309;28;1268;-82
2022/04/18 00:48:23;;;;;;;46.45;21.08;;;;;;;6.29;39.57;101476.25;685119;28;1128;-81
2022/04/18 00:48:46;;;;;;;44.23;20.60;;;;;;;6.32;39.60;101483.28;690501;28;984;-82
2022/04/18 00:49:06;;;;;;;39.63;19.20;;;;;;;6.30;39.72;101485.81;690461;28;952;-82
2022/04/18 00:49:28;;;;;;;40.03;19.13;;;;;;;6.29;39.66;101486.59;692250;28;1391;-82
2022/04/18 00:49:49;;;;;;;41.08;19.63;;;;;;;6.32;39.39;101487.59;690051;28;874;-81
2022/04/18 00:50:10;;;;;;;37.55;19.30;;;;;;;6.26;39.85;101486.41;687681;28;1217;-82
2022/04/18 00:50:33;;;;;;;34.92;19.40;;;;;;;6.26;39.98;101480.34;689318;28;1197;-82
2022/04/18 00:50:53;;;;;;;40.05;19.92;;;;;;;6.26;39.97;101482.94;687827;28;832;-82
2022/04/18 00:51:16;;;;;;;42.83;19.67;;;;;;;6.28;39.91;101487.38;686173;28;1042;-82
2022/04/18 00:51:37;;;;;;;41.83;19.83;;;;;;;6.24;40.02;101474.16;684808;28;1168;-82
2022/04/18 00:51:59;;;;;;;41.92;20.40;;;;;;;6.34;40.15;101491.16;684830;28;1237;-81
2022/04/18 00:52:19;;;;;;;40.35;20.63;;;;;;;6.32;40.10;101487.59;687774;28;1367;-82
2022/04/18 00:52:40;;;;;;;42.92;19.90;;;;;;;6.26;40.39;101485.53;695781;28;1171;-82
2022/04/18 00:53:03;;;;;;;41.35;19.73;;;;;;;6.35;40.05;101491.25;690697;28;1038;-82
2022/04/18 00:53:24;;;;;;;39.08;19.48;;;;;;;6.23;40.19;101473.28;680253;28;1224;-82
2022/04/18 00:53:45;;;;;;;39.13;19.33;;;;;;;6.34;40.13;101502.44;684960;28;1146;-81
2022/04/18 00:54:06;;;;;;;34.92;17.83;;;;;;;6.34;40.50;101492.06;685042;28;1009;-81
2022/04/18 00:54:27;;;;;;;35.65;17.30;;;;;;;6.34;40.68;101493.75;685860;28;1186;-82
2022/04/18 00:54:48;;;;;;;35.42;17.90;;;;;;;6.30;40.45;101485.81;682405;28;1398;-81
2022/04/18 00:55:10;;;;;;;41.95;19.00;;;;;;;6.23;40.13;101475.88;687882;28;993;-82
2022/04/18 00:55:33;;;;;;;38.75;18.73;;;;;;;6.22;40.23;101471.50;687486;28;1254;-82
2022/04/18 00:55:54;;;;;;;35.28;17.55;;;;;;;6.21;40.25;101477.50;690437;28;1321;-81
2022/04/18 00:56:17;;;;;;;34.47;17.25;;;;;;;6.19;40.45;101473.03;687515;28;1153;-82
2022/04/18 00:56:38;;;;;;;34.80;17.50;;;;;;;6.22;40.53;101484.47;693656;28;1216;-82
2022/04/18 00:56:59;;;;;;;34.10;17.33;;;;;;;6.22;40.79;101479.28;687711;28;819;-82
2022/04/18 00:57:20;;;;;;;30.50;16.90;;;;;;;6.25;40.74;101487.22;685155;28;937;-82
2022/04/18 00:57:41;;;;;;;30.42;16.20;;;;;;;6.19;40.76;101483.41;687811;28;1733;-82
2022/04/18 00:58:04;;;;;;;30.40;16.88;;;;;;;6.19;40.56;101481.69;693189;28;1446;-82
2022/04/18 00:58:25;;;;;;;30.85;16.70;;;;;;;6.17;40.89;101478.13;692671;28;1236;-82
2022/04/18 00:58:47;;;;;;;28.35;16.25;;;;;;;6.22;40.78;101492.25;684939;28;1358;-81
2022/04/18 00:59:08;;;;;;;29.45;15.90;;;;;;;6.16;41.15;101478.94;684994;28;1283;-82
2022/04/18 00:59:32;;;;;;;31.65;16.02;;;;;;;6.14;41.47;101484.00;691027;28;1385;-82
2022/04/18 00:59:52;;;;;;;32.80;15.90;;;;;;;6.09;41.22;101475.09;695748;28;1320;-82
2022/04/18 01:00:14;;;;;;;33.77;16.10;;;;;;;6.10;41.25;101481.16;688994;28;1766;-82
2022/04/18 01:00:34;;;;;;;31.83;15.82;;;;;;;6.08;41.03;101477.59;694731;28;1165;-81
2022/04/18 01:00:56;;;;;;;33.97;15.40;;;;;;;6.08;41.38;101475.00;687895;28;735;-81
2022/04/18 01:01:18;;;;;;;31.98;14.93;;;;;;;6.09;41.39;101484.56;687539;28;1351;-82
2022/04/18 01:01:40;;;;;;;29.02;15.18;;;;;;;6.11;41.53;101488.13;684773;28;1410;-81
2022/04/18 01:02:01;;;;;;;28.17;15.45;;;;;;;6.03;41.25;101474.75;682239;28;1274;-82
2022/04/18 01:02:21;;;;;;;30.70;16.40;;;;;;;6.06;41.27;101481.81;682309;28;1231;-81
2022/04/18 01:02:42;;;;;;;28.40;16.00;;;;;;;6.00;41.65;101478.03;684686;28;1973;-82
2022/04/18 01:03:03;;;;;;;26.60;15.60;;;;;;;5.95;41.90;101471.69;687627;28;1166;-82
2022/04/18 01:03:24;;;;;;;25.75;14.60;;;;;;;5.98;41.77;101477.06;685098;28;1254;-81
2022/04/18 01:03:45;;;;;;;27.53;14.70;;;;;;;6.02;41.87;101480.72;690348;28;1056;-81
2022/04/18 01:04:06;;;;;;;28.92;14.68;;;;;;;5.98;41.81;101477.06;687851;28;1028;-82
2022/04/18 01:04:26;;;;;;;25.08;14.15;;;;;;;5.97;41.72;101480.47;693108;28;1151;-82
2022/04/18 01:04:49;;;;;;;23.43;13.90;;;;;;;5.99;41.93;101489.22;695917;28;881;-82
2022/04/18 01:05:10;;;;;;;21.90;13.50;;;;;;;5.97;41.79;101485.66;691663;28;1397;-82
2022/04/18 01:05:30;;;;;;;22.42;13.45;;;;;;;5.91;42.25;101474.91;692951;28;1158;-81
2022/04/18 01:05:51;;;;;;;21.85;12.90;;;;;;;5.91;41.93;101480.09;687804;28;1392;-82
2022/04/18 01:06:14;;;;;;;22.50;13.35;;;;;;;5.91;41.90;101479.19;690405;28;968;-82
2022/04/18 01:06:35;;;;;;;21.85;13.10;;;;;;;5.92;42.01;101481.88;687637;28;1112;-82
2022/04/18 01:06:58;;;;;;;20.60;12.85;;;;;;;5.89;41.94;101471.31;687764;28;1427;-81
2022/04/18 01:07:19;;;;;;;21.70;12.90;;;;;;;5.95;42.09;101487.22;687640;28;1052;-81
2022/04/18 01:07:40;;;;;;;25.77;13.25;;;;;;;5.93;42.17;101482.75;690814;28;1428;-82
2022/04/18 01:08:01;;;;;;;25.15;13.43;;;;;;;5.84;42.26;101467.59;695125;28;1463;-81
2022/04/18 01:08:25;;;;;;;24.25;12.90;;;;;;;5.90;42.26;101483.50;685098;28;1091;-82
2022/04/18 01:08:47;;;;;;;23.73;13.10;;;;;;;5.88;42.33;101479.91;687729;28;938;-82
2022/04/18 01:09:07;;;;;;;22.02;12.65;;;;;;;5.89;42.30;101482.59;690351;28;1003;-82
2022/04/18 01:09:28;;;;;;;20.83;12.90;;;;;;;5.86;42.26;101476.34;689963;28;1183;-81
2022/04/18 01:09:49;;;;;;;19.98;13.05;;;;;;;5.81;42.46;101468.28;681865;28;1176;-81
2022/04/18 01:10:10;;;;;;;22.55;13.70;;;;;;;5.78;42.83;101459.44;685031;28;1114;-82
2022/04/18 01:10:30;;;;;;;21.35;13.73;;;;;;;5.79;42.49;101459.56;689720;28;1142;-82
2022/04/18 01:10:53;;;;;;;21.70;14.13;;;;;;;5.77;42.26;101461.13;693245;28;763;-81
2022/04/18 01:11:15;;;;;;;22.27;13.80;;;;;;;5.82;42.31;101480.44;687600;28;1357;-81
2022/04/18 01:11:53;;;;;;;25.05;14.15;;;;;;;5.74;42.44;101472.22;685064;28;1232;-81
2022/04/18 01:12:38;;;;;;;23.15;14.82;;;;;;;5.75;42.39;101465.34;684455;28;1251;-81
2022/04/18 01:13:27;;;;;;;23.30;14.50;;;;;;;5.77;42.73;101476.66;683752;28;1363;-82
2022/04/18 01:14:06;;;;;;;22.65;14.50;;;;;;;5.76;42.92;101474.88;693130;28;1112;-82
2022/04/18 01:14:49;;;;;;;26.95;16.50;;;;;;;5.80;42.98;101475.97;693166;28;995;-82
2022/04/18 01:15:09;;;;;;;26.92;16.67;;;;;;;5.80;42.65;101475.97;693602;28;984;-81
2022/04/18 01:15:59;;;;;;;26.25;16.05;;;;;;;5.80;42.56;101465.59;690380;28;1162;-82
2022/04/18 01:16:42;;;;;;;27.88;17.60;;;;;;;5.82;42.79;101476.97;692700;28;1392;-81
2022/04/18 01:17:26;;;;;;;26.77;17.45;;;;;;;5.72;42.84;101460.88;687099;28;1715;-82
2022/04/18 01:18:13;;;;;;;26.35;16.48;;;;;;;5.72;42.44;101463.44;686593;28;1138;-82
2022/04/18 01:18:57;;;;;;;27.48;16.58;;;;;;;5.68;42.90;101461.50;690059;28;1199;-81
2022/04/18 01:19:42;;;;;;;30.77;17.00;;;;;;;5.72;42.99;101468.63;686846;28;1165;-81
2022/04/18 01:20:34;;;;;;;28.50;17.20;;;;;;;5.66;42.83;101454.44;686868;28;1874;-81
2022/04/18 01:21:09;;;;;;;24.67;15.93;;;;;;;5.73;43.03;101472.13;684837;28;1596;-82
2022/04/18 01:22:02;;;;;;;25.73;15.98;;;;;;;5.67;43.01;101464.91;687434;28;1347;-82
2022/04/18 01:22:30;;;;;;;27.05;16.15;;;;;;;5.72;43.05;101468.63;689972;28;1428;-82
2022/04/18 01:23:05;;;;;;;30.80;16.70;;;;;;;5.67;43.18;101464.91;690120;28;1251;-81
2022/04/18 01:23:38;;;;;;;29.60;16.35;;;;;;;5.67;43.02;101467.50;683196;28;1096;-82
2022/04/18 01:28:58;;;;;;;28.48;16.10;;;;;;;5.56;43.12;101450.41;684935;28;1400;-82
2022/04/18 01:29:01;;;;;;;30.05;17.50;;;;;;;5.60;43.16;101447.22;693170;28;1389;-82
2022/04/18 01:29:23;;;;;;;31.45;18.75;;;;;;;5.59;43.11;101455.78;687550;28;1244;-81
2022/04/18 01:29:44;;;;;;;30.73;19.00;;;;;;;5.59;43.23;101448.00;684589;28;962;-81
2022/04/18 01:30:05;;;;;;;29.57;18.60;;;;;;;5.58;43.26;101456.59;684981;28;1017;-81
2022/04/18 01:30:27;;;;;;;29.92;18.73;;;;;;;5.63;43.52;101465.50;685290;28;1299;-82
2022/04/18 01:30:47;;;;;;;29.27;18.75;;;;;;;5.54;43.44;101449.44;690407;28;795;-81
2022/04/18 01:31:08;;;;;;;28.70;18.05;;;;;;;5.47;43.79;101441.28;684473;28;1261;-81
2022/04/18 01:31:32;;;;;;;28.90;17.50;;;;;;;5.56;43.68;101456.50;685672;28;1111;-81
2022/04/18 01:31:52;;;;;;;29.85;17.10;;;;;;;5.57;43.58;101458.28;686218;28;1111;-81
2022/04/18 01:32:13;;;;;;;27.65;17.08;;;;;;;5.48;43.48;101447.38;687660;28;1189;-81
2022/04/18 01:32:33;;;;;;;27.90;17.30;;;;;;;5.49;43.79;101449.16;687462;28;1128;-82
2022/04/18 01:32:54;;;;;;;26.83;17.00;;;;;;;5.47;43.91;101436.09;685048;28;1025;-82
2022/04/18 01:33:14;;;;;;;29.45;18.05;;;;;;;5.48;43.56;101443.06;684883;28;1341;-81
2022/04/18 01:33:38;;;;;;;32.30;18.58;;;;;;;5.48;43.64;101445.66;686975;28;1029;-81
2022/04/18 01:34:00;;;;;;;32.25;18.73;;;;;;;5.45;43.89;101442.91;684959;28;1312;-82
2022/04/18 01:34:21;;;;;;;30.85;18.35;;;;;;;5.47;43.88;101449.06;690397;28;1215;-82
2022/04/18 01:34:41;;;;;;;28.92;18.15;;;;;;;5.42;44.16;101434.97;692794;28;1230;-81
2022/04/18 01:35:04;;;;;;;29.20;17.90;;;;;;;5.45;44.07;101445.50;689489;28;1327;-82
2022/04/18 01:35:26;;;;;;;28.55;17.92;;;;;;;5.42;43.98;101444.41;687413;28;1265;-82
2022/04/18 01:35:46;;;;;;;31.60;18.92;;;;;;;5.41;44.12;101440.91;690442;28;933;-82
2022/04/18 01:36:07;;;;;;;31.00;19.27;;;;;;;5.42;44.41;101444.41;690115;28;1786;-81
2022/04/18 01:36:28;;;;;;;30.52;19.20;;;;;;;5.38;44.16;101443.34;687526;28;1195;-82
2022/04/18 01:36:50;;;;;;;27.60;17.70;;;;;;;5.45;44.22;101453.25;688858;28;1461;-81
2022/04/18 01:37:12;;;;;;;26.52;16.80;;;;;;;5.38;44.02;101440.75;692426;28;1713;-81
2022/04/18 01:37:34;;;;;;;28.85;18.05;;;;;;;5.42;44.31;101458.25;688151;28;1258;-81
2022/04/18 01:37:56;;;;;;;30.33;18.75;;;;;;;5.35;44.46;101443.16;687771;28;772;-81
2022/04/18 01:38:16;;;;;;;32.08;18.75;;;;;;;5.38;44.14;101443.34;685666;28;970;-82
2022/04/18 01:38:37;;;;;;;30.90;17.70;;;;;;;5.35;44.03;101445.75;688317;28;1186;-82
2022/04/18 01:38:59;;;;;;;31.73;18.05;;;;;;;5.36;44.69;101450.13;694989;28;1584;-82
2022/04/18 01:39:20;;;;;;;29.92;17.75;;;;;;;5.33;44.46;101448.22;695760;28;1212;-81
2022/04/18 01:39:40;;;;;;;28.25;17.75;;;;;;;5.36;44.32;101450.13;694943;28;1288;-82
2022/04/18 01:40:01;;;;;;;27.58;17.38;;;;;;;5.33;44.40;101442.16;688584;28;1183;-81
2022/04/18 01:40:22;;;;;;;29.85;18.15;;;;;;;5.36;44.49;101452.72;687014;28;1645;-82
2022/04/18 01:40:43;;;;;;;29.27;18.20;;;;;;;5.33;44.53;101447.31;681988;29;1035;-81
2022/04/18 01:41:03;;;;;;;26.37;17.40;;;;;;;5.36;44.42;101451.78;684657;28;1728;-82
2022/04/18 01:41:24;;;;;;;24.95;16.80;;;;;;;5.35;44.53;101450.94;690431;28;1431;-81
2022/04/18 01:41:46;;;;;;;25.55;16.80;;;;;;;5.28;44.69;101443.59;690219;28;1472;-81
2022/04/18 01:42:07;;;;;;;27.00;17.20;;;;;;;5.33;44.62;101448.22;690224;28;946;-82
2022/04/18 01:42:27;;;;;;;28.95;17.20;;;;;;;5.20;44.58;101441.44;686001;28;1293;-82
2022/04/18 01:42:48;;;;;;;29.43;17.30;;;;;;;5.28;44.55;101446.19;693000;28;1910;-82
2022/04/18 01:43:10;;;;;;;28.40;16.98;;;;;;;5.29;44.78;101451.41;690080;28;986;-82
2022/04/18 01:43:33;;;;;;;28.70;17.48;;;;;;;5.23;44.61;101447.56;692823;28;1387;-81
2022/04/18 01:43:54;;;;;;;29.70;17.88;;;;;;;5.25;45.08;101443.38;687704;28;800;-81
2022/04/18 01:44:14;;;;;;;30.85;18.77;;;;;;;5.20;45.23;101436.25;692953;28;1252;-81
2022/04/18 01:44:35;;;;;;;30.75;18.08;;;;;;;5.24;44.95;101454.53;691082;28;1467;-81
2022/04/18 01:44:57;;;;;;;30.75;18.38;;;;;;;5.20;45.24;101443.09;691076;28;1475;-82
2022/04/18 01:45:17;;;;;;;29.00;17.38;;;;;;;5.19;45.31;101438.72;684796;28;1114;-82
2022/04/18 01:45:43;;;;;;;26.50;17.17;;;;;;;5.19;45.13;101444.81;687692;28;998;-81
2022/04/18 01:46:11;;;;;;;28.58;17.50;;;;;;;5.14;45.20;101434.97;684912;28;1461;-81
2022/04/18 01:46:33;;;;;;;30.63;17.90;;;;;;;5.23;45.11;101450.16;687502;28;1129;-81
2022/04/18 01:46:53;;;;;;;29.85;17.95;;;;;;;5.23;45.33;101455.34;687544;28;1358;-82
2022/04/18 01:47:15;;;;;;;31.55;18.13;;;;;;;5.17;45.02;101448.97;684875;28;1249;-81
2022/04/18 01:47:36;;;;;;;30.55;17.52;;;;;;;5.11;45.15;101435.69;686701;28;1254;-81
2022/04/18 01:47:57;;;;;;;30.17;17.33;;;;;;;5.15;45.61;101445.41;686203;28;1690;-81
2022/04/18 01:48:18;;;;;;;28.17;16.67;;;;;;;5.17;45.33;101445.53;690273;28;1120;-81
2022/04/18 01:48:39;;;;;;;27.70;16.63;;;;;;;5.18;45.25;101448.22;692929;28;1221;-81
2022/04/18 01:49:00;;;;;;;25.80;15.60;;;;;;;5.16;45.46;101449.78;693020;28;1504;-81
2022/04/18 01:49:20;;;;;;;26.60;16.40;;;;;;;5.12;45.47;101445.25;693074;28;1087;-82
2022/04/18 01:49:41;;;;;;;27.27;16.92;;;;;;;5.08;45.88;101435.50;685775;28;1286;-82
2022/04/18 01:50:02;;;;;;;26.15;17.15;;;;;;;5.13;45.62;101449.63;682321;28;1011;-81
2022/04/18 01:50:24;;;;;;;25.40;16.33;;;;;;;5.18;45.47;101453.38;685047;28;1436;-81
2022/04/18 01:50:44;;;;;;;27.87;16.80;;;;;;;5.07;45.85;101431.13;687619;28;1093;-81